Time;durP1;ratioP1;P1;durP2;ratioP2;P2;SDS_P1;SDS_P2;PMS_P1;PMS_P2;Temp;Humidity;BMP_temperature;BMP_pressure;BME280_temperature;BME280_humidity;BME280_pressure;Samples;Min_cycle;Max_cycle;Signal;HPM_P1;HPM_P2
2023/03/17 00:00:13;;;;;;;6.50;4.50;;;8.00;95.50;;;;;;5087455;28;20928;-91
2023/03/17 00:02:42;;;;;;;5.85;4.32;;;8.00;95.60;;;;;;5069826;28;20394;-88
2023/03/17 00:05:30;;;;;;;5.90;4.38;;;8.00;95.30;;;;;;5070010;28;20912;-90
2023/03/17 00:08:02;;;;;;;5.78;4.43;;;8.00;95.40;;;;;;5069875;28;20769;-89
2023/03/17 00:10:28;;;;;;;5.40;4.28;;;8.00;95.20;;;;;;5070321;28;20757;-91
2023/03/17 00:12:54;;;;;;;6.43;4.07;;;8.00;95.20;;;;;;5070179;28;20425;-90
2023/03/17 00:15:22;;;;;;;6.25;4.40;;;8.20;95.10;;;;;;5086703;28;20406;-90
2023/03/17 00:17:48;;;;;;;6.00;4.20;;;8.10;95.10;;;;;;5070275;28;20402;-91
2023/03/17 00:20:26;;;;;;;7.57;4.50;;;8.00;95.40;;;;;;5086765;28;20896;-90
2023/03/17 00:22:54;;;;;;;6.10;4.00;;;8.00;95.10;;;;;;5070292;28;20882;-90
2023/03/17 00:25:26;;;;;;;5.90;4.65;;;8.00;95.20;;;;;;5086090;28;20904;-89
2023/03/17 00:27:52;;;;;;;5.53;4.05;;;8.00;95.10;;;;;;5069506;28;20399;-91
2023/03/17 00:30:18;;;;;;;5.55;4.30;;;8.00;95.00;;;;;;5070067;28;20550;-88
2023/03/17 00:32:44;;;;;;;5.37;4.20;;;8.00;94.90;;;;;;5069573;28;20459;-90
2023/03/17 00:35:37;;;;;;;5.93;4.30;;;8.10;94.50;;;;;;5069943;28;20917;-90
2023/03/17 00:38:03;;;;;;;5.60;4.20;;;8.10;95.00;;;;;;5066358;28;20398;-90
2023/03/17 00:40:29;;;;;;;4.80;3.38;;;8.10;94.80;;;;;;5086492;28;20394;-90
2023/03/17 00:42:56;;;;;;;6.45;4.18;;;8.10;94.60;;;;;;5069148;28;20394;-90
2023/03/17 00:45:24;;;;;;;6.00;3.67;;;8.10;94.70;;;;;;5086370;28;20409;-90
2023/03/17 00:47:54;;;;;;;4.47;3.30;;;8.10;94.50;;;;;;5069725;28;20404;-91
2023/03/17 00:50:23;;;;;;;5.07;3.73;;;8.10;94.10;;;;;;5068768;28;20401;-91
2023/03/17 00:52:50;;;;;;;5.13;3.50;;;8.40;94.60;;;;;;5068949;28;20433;-90
2023/03/17 00:55:17;;;;;;;4.72;3.33;;;8.10;94.20;;;;;;5085932;28;20406;-90
2023/03/17 00:57:43;;;;;;;4.47;3.50;;;8.10;94.00;;;;;;5086563;28;21465;-91
2023/03/17 01:00:28;;;;;;;5.43;3.30;;;8.10;93.90;;;;;;5068922;28;20945;-90
2023/03/17 01:02:56;;;;;;;4.63;3.40;;;8.30;93.90;;;;;;5085705;28;20904;-90
2023/03/17 01:05:24;;;;;;;4.68;3.65;;;8.40;93.70;;;;;;5084822;28;20398;-88
2023/03/17 01:07:53;;;;;;;4.63;3.15;;;8.20;93.70;;;;;;5068167;28;20500;-89
2023/03/17 01:10:22;;;;;;;5.60;3.70;;;8.20;93.90;;;;;;5068982;28;20765;-89
2023/03/17 01:12:49;;;;;;;3.90;3.15;;;8.20;93.70;;;;;;5068529;28;20422;-89
2023/03/17 01:15:16;;;;;;;3.80;2.90;;;8.20;93.30;;;;;;5068416;28;20397;-90
2023/03/17 01:17:43;;;;;;;3.63;2.83;;;8.40;93.20;;;;;;5085852;28;20406;-90
2023/03/17 01:20:15;;;;;;;3.80;3.03;;;8.20;93.10;;;;;;5085726;28;20417;-90
2023/03/17 01:22:42;;;;;;;4.50;2.90;;;8.20;92.60;;;;;;5068839;28;20405;-89
2023/03/17 01:25:09;;;;;;;4.35;2.90;;;8.30;92.50;;;;;;5068106;28;20400;-90
2023/03/17 01:27:35;;;;;;;4.80;3.22;;;8.30;92.30;;;;;;5068168;28;20489;-88
2023/03/17 01:30:02;;;;;;;4.65;3.30;;;8.40;92.40;;;;;;5068103;28;20400;-89
2023/03/17 01:32:28;;;;;;;4.50;3.35;;;8.30;92.60;;;;;;5085344;28;20472;-89
2023/03/17 01:34:54;;;;;;;4.43;3.17;;;8.50;92.30;;;;;;5085240;28;20433;-90
2023/03/17 01:37:20;;;;;;;4.30;3.00;;;8.40;92.10;;;;;;5068445;28;20406;-90
2023/03/17 01:39:46;;;;;;;3.87;2.90;;;8.30;92.40;;;;;;5068683;28;20807;-89
2023/03/17 01:42:12;;;;;;;4.68;3.03;;;8.30;91.90;;;;;;5068282;28;20412;-90
2023/03/17 01:45:06;;;;;;;3.65;3.00;;;8.30;91.70;;;;;;5084909;28;20490;-90
2023/03/17 01:47:33;;;;;;;4.18;2.67;;;8.30;91.40;;;;;;5084985;28;20402;-89
2023/03/17 01:50:05;;;;;;;4.10;3.00;;;8.30;91.70;;;;;;5068186;28;20437;-91
2023/03/17 01:52:34;;;;;;;4.80;2.92;;;8.30;92.10;;;;;;5068178;28;20513;-90
2023/03/17 01:55:09;;;;;;;5.03;3.37;;;8.30;91.70;;;;;;5084632;28;20398;-90
2023/03/17 01:57:52;;;;;;;3.53;3.22;;;8.30;91.90;;;;;;5084852;28;20410;-91
2023/03/17 02:00:20;;;;;;;4.50;2.75;;;8.40;91.90;;;;;;5068120;28;20414;-91
2023/03/17 02:02:51;;;;;;;4.18;2.83;;;8.30;91.50;;;;;;5084920;28;20410;-90
2023/03/17 02:05:21;;;;;;;4.65;2.97;;;8.30;92.00;;;;;;5068211;28;20441;-90
2023/03/17 02:07:48;;;;;;;4.35;2.90;;;8.50;91.70;;;;;;5067819;28;20442;-89
2023/03/17 02:10:18;;;;;;;5.18;2.80;;;8.20;91.80;;;;;;5084798;28;20402;-91
2023/03/17 02:12:45;;;;;;;4.90;2.78;;;8.20;91.70;;;;;;5084937;28;20426;-90
2023/03/17 02:15:11;;;;;;;3.42;2.60;;;8.20;91.60;;;;;;5084802;28;20824;-89
2023/03/17 02:17:37;;;;;;;4.60;2.63;;;8.60;91.80;;;;;;5069647;28;20429;-90
2023/03/17 02:20:15;;;;;;;3.78;2.53;;;8.20;91.60;;;;;;5072007;28;20410;-90
2023/03/17 02:22:52;;;;;;;3.72;2.85;;;8.20;91.80;;;;;;5072446;28;20409;-90
2023/03/17 02:25:20;;;;;;;4.18;3.00;;;8.20;91.50;;;;;;5088548;28;20497;-89
2023/03/17 02:27:50;;;;;;;3.63;2.67;;;8.20;91.70;;;;;;5071728;28;20398;-91
2023/03/17 02:30:20;;;;;;;4.07;2.65;;;8.60;91.80;;;;;;5088844;28;20746;-90
2023/03/17 02:32:46;;;;;;;4.07;2.70;;;8.20;91.30;;;;;;5071694;28;20486;-90
2023/03/17 02:35:13;;;;;;;4.67;3.20;;;8.20;91.40;;;;;;5072249;28;20389;-91
2023/03/17 02:37:39;;;;;;;4.07;2.70;;;8.20;91.70;;;;;;5072094;28;20398;-90
2023/03/17 02:40:06;;;;;;;4.50;2.80;;;8.40;91.40;;;;;;5071766;28;20417;-91
2023/03/17 02:42:32;;;;;;;4.55;3.25;;;8.20;91.90;;;;;;5071999;28;20410;-90
2023/03/17 02:44:59;;;;;;;3.92;2.75;;;8.20;91.70;;;;;;5088812;28;20409;-90
2023/03/17 02:47:24;;;;;;;3.97;2.80;;;8.40;91.60;;;;;;5088279;28;20408;-91
2023/03/17 02:49:51;;;;;;;3.90;2.97;;;8.20;91.60;;;;;;5071390;28;20485;-90
2023/03/17 02:52:16;;;;;;;4.65;3.00;;;8.20;91.80;;;;;;5087883;28;20427;-92
2023/03/17 02:54:42;;;;;;;4.70;3.13;;;8.10;92.00;;;;;;5088639;28;20394;-89
2023/03/17 02:57:08;;;;;;;5.07;3.00;;;8.10;91.30;;;;;;5071224;28;21064;-89
2023/03/17 02:59:34;;;;;;;4.35;3.08;;;8.10;91.40;;;;;;5071283;28;20394;-90
2023/03/17 03:02:00;;;;;;;4.32;3.17;;;8.20;91.90;;;;;;5071599;28;20773;-89
2023/03/17 03:04:26;;;;;;;4.83;3.07;;;8.10;91.80;;;;;;5087743;28;20402;-90
2023/03/17 03:06:52;;;;;;;4.70;2.70;;;8.10;91.80;;;;;;5071049;28;20768;-91
2023/03/17 03:09:19;;;;;;;4.47;2.95;;;8.10;91.70;;;;;;5071250;28;20951;-91
2023/03/17 03:11:45;;;;;;;4.57;3.00;;;8.10;91.70;;;;;;5088163;28;20421;-90
2023/03/17 03:14:11;;;;;;;4.30;3.05;;;8.10;91.80;;;;;;5070765;28;20513;-91
2023/03/17 03:16:37;;;;;;;4.55;3.00;;;8.10;91.70;;;;;;5088083;28;20485;-89
2023/03/17 03:19:03;;;;;;;4.47;3.20;;;8.20;91.50;;;;;;5087862;28;20496;-90
2023/03/17 03:21:29;;;;;;;5.05;3.17;;;8.10;91.30;;;;;;5070793;28;20407;-90
2023/03/17 03:23:55;;;;;;;3.90;2.97;;;8.10;91.40;;;;;;5071167;28;20830;-91
2023/03/17 03:26:21;;;;;;;4.93;2.97;;;8.10;91.60;;;;;;5104379;28;20402;-90
2023/03/17 03:28:48;;;;;;;3.72;2.83;;;8.10;91.80;;;;;;5086698;28;20417;-89
2023/03/17 03:31:13;;;;;;;6.75;2.85;;;8.10;91.80;;;;;;5070510;28;20748;-91
2023/03/17 03:33:40;;;;;;;4.57;3.17;;;8.10;91.70;;;;;;5088009;28;20766;-90
2023/03/17 03:36:07;;;;;;;3.70;2.63;;;8.10;91.70;;;;;;5087720;28;20413;-90
2023/03/17 03:38:34;;;;;;;3.97;3.07;;;8.10;91.60;;;;;;5070730;28;20406;-90
2023/03/17 03:41:00;;;;;;;4.13;3.00;;;8.20;91.60;;;;;;5087678;28;20406;-89
2023/03/17 03:43:26;;;;;;;4.28;2.80;;;8.10;91.60;;;;;;5104557;28;20501;-89
2023/03/17 03:45:53;;;;;;;3.90;2.70;;;8.10;91.70;;;;;;5070561;28;20843;-90
2023/03/17 03:48:19;;;;;;;4.43;2.90;;;8.10;91.30;;;;;;5070164;28;20454;-91
2023/03/17 03:50:46;;;;;;;3.95;2.80;;;8.10;91.20;;;;;;5087474;28;20833;-90
2023/03/17 03:53:12;;;;;;;4.53;2.80;;;8.10;91.40;;;;;;5070193;28;20469;-90
2023/03/17 03:55:38;;;;;;;5.60;3.10;;;8.20;91.20;;;;;;5087420;28;20406;-90
2023/03/17 03:58:04;;;;;;;5.05;2.95;;;8.20;91.20;;;;;;5087781;28;20459;-90
2023/03/17 04:00:30;;;;;;;4.00;2.85;;;8.20;91.10;;;;;;5103769;28;20912;-91
2023/03/17 04:02:56;;;;;;;4.75;2.90;;;8.20;91.00;;;;;;5070147;28;20430;-91
2023/03/17 04:05:21;;;;;;;5.07;2.97;;;8.20;91.40;;;;;;5086897;28;20498;-90
2023/03/17 04:07:47;;;;;;;3.75;2.80;;;8.20;91.20;;;;;;5069778;28;20425;-91
2023/03/17 04:10:14;;;;;;;4.50;3.30;;;8.20;91.10;;;;;;5070224;28;20906;-91
2023/03/17 04:12:41;;;;;;;4.18;3.00;;;8.20;91.40;;;;;;5070203;28;20426;-89
2023/03/17 04:15:10;;;;;;;5.63;3.00;;;8.20;91.10;;;;;;5069850;28;20463;-90
2023/03/17 04:17:36;;;;;;;4.07;2.85;;;8.20;91.00;;;;;;5086835;28;20398;-91
2023/03/17 04:20:02;;;;;;;5.45;3.10;;;8.20;91.10;;;;;;5070165;28;20406;-90
2023/03/17 04:22:27;;;;;;;3.33;2.50;;;8.10;91.00;;;;;;5103123;28;20413;-89
2023/03/17 04:24:53;;;;;;;4.63;3.00;;;8.10;91.20;;;;;;5069768;28;20414;-90
2023/03/17 04:27:19;;;;;;;4.95;2.97;;;8.10;91.10;;;;;;5069377;28;20746;-90
2023/03/17 04:29:44;;;;;;;3.73;3.00;;;8.00;91.50;;;;;;5069404;28;20485;-91
2023/03/17 04:32:12;;;;;;;4.07;2.90;;;8.60;91.60;;;;;;5086485;28;20734;-90
2023/03/17 04:34:38;;;;;;;4.00;2.80;;;8.00;91.70;;;;;;5087023;28;20394;-91
2023/03/17 04:37:04;;;;;;;3.42;3.10;;;8.00;91.80;;;;;;5086400;28;20391;-90
2023/03/17 04:39:30;;;;;;;4.50;3.00;;;8.20;91.90;;;;;;5069751;28;20754;-90
2023/03/17 04:41:56;;;;;;;4.70;3.10;;;7.90;91.80;;;;;;5069764;28;20410;-90
2023/03/17 04:44:21;;;;;;;5.20;3.42;;;7.80;92.00;;;;;;5069319;28;20405;-90
2023/03/17 04:46:47;;;;;;;5.15;3.40;;;7.80;92.30;;;;;;5086294;28;20482;-92
2023/03/17 04:49:13;;;;;;;5.13;3.37;;;7.80;92.60;;;;;;5069039;28;20397;-90
2023/03/17 04:51:38;;;;;;;5.03;3.30;;;7.70;93.00;;;;;;5069554;28;20412;-90
2023/03/17 04:54:04;;;;;;;4.53;3.40;;;7.60;92.90;;;;;;5085862;28;21026;-90
2023/03/17 04:56:30;;;;;;;4.15;3.25;;;7.60;93.30;;;;;;5069889;28;20394;-91
2023/03/17 04:58:56;;;;;;;4.38;3.33;;;7.60;93.10;;;;;;5085728;28;20905;-90
2023/03/17 05:01:22;;;;;;;4.07;3.15;;;7.50;93.40;;;;;;5068882;28;20430;-91
2023/03/17 05:03:48;;;;;;;4.32;3.15;;;7.50;93.30;;;;;;5069104;28;20410;-90
2023/03/17 05:06:14;;;;;;;4.70;3.33;;;7.50;93.40;;;;;;5085424;28;20418;-92
2023/03/17 05:08:39;;;;;;;4.45;3.22;;;7.50;93.60;;;;;;5069113;28;20497;-91
2023/03/17 05:11:05;;;;;;;5.03;3.17;;;7.50;93.50;;;;;;5068763;28;20858;-91
2023/03/17 05:13:31;;;;;;;4.13;3.43;;;7.50;93.80;;;;;;5068804;28;20597;-91
2023/03/17 05:15:58;;;;;;;4.70;3.07;;;7.50;93.90;;;;;;5068881;28;21003;-90
2023/03/17 05:18:25;;;;;;;4.47;3.00;;;7.60;93.90;;;;;;5085576;28;20421;-91
2023/03/17 05:20:51;;;;;;;4.85;3.28;;;7.60;93.90;;;;;;5068694;28;20447;-91
2023/03/17 05:23:16;;;;;;;4.30;3.03;;;7.70;93.90;;;;;;5068637;28;20405;-91
2023/03/17 05:25:42;;;;;;;4.13;2.83;;;7.60;93.90;;;;;;5085335;28;20401;-90
2023/03/17 05:28:08;;;;;;;4.82;3.08;;;7.60;93.90;;;;;;5085364;28;20753;-91
2023/03/17 05:30:37;;;;;;;5.32;3.25;;;7.70;93.70;;;;;;5085737;28;20889;-91
2023/03/17 05:33:03;;;;;;;4.05;2.90;;;7.70;93.70;;;;;;5068280;28;20422;-90
2023/03/17 05:35:29;;;;;;;3.28;2.83;;;7.70;93.40;;;;;;5068852;28;20524;-91
2023/03/17 05:37:55;;;;;;;5.03;3.23;;;7.70;93.40;;;;;;5068558;28;20467;-92
2023/03/17 05:40:22;;;;;;;4.28;2.70;;;7.80;93.40;;;;;;5085154;28;20409;-89
2023/03/17 05:42:49;;;;;;;4.05;2.85;;;7.80;93.10;;;;;;5068504;28;20490;-91
2023/03/17 05:45:16;;;;;;;3.70;2.70;;;7.80;93.00;;;;;;5084962;28;20435;-91
2023/03/17 05:47:42;;;;;;;4.13;2.78;;;7.80;92.70;;;;;;5085639;28;20765;-90
2023/03/17 05:50:09;;;;;;;5.27;2.60;;;7.90;92.60;;;;;;5067851;28;20386;-90
2023/03/17 05:52:35;;;;;;;3.88;2.55;;;7.90;92.40;;;;;;5068021;28;20851;-91
2023/03/17 05:55:01;;;;;;;3.53;2.58;;;7.90;92.80;;;;;;5068066;28;20571;-90
2023/03/17 05:57:27;;;;;;;4.38;2.60;;;8.00;92.00;;;;;;5068036;28;20409;-91
2023/03/17 05:59:53;;;;;;;4.47;2.80;;;8.00;92.20;;;;;;5084905;28;20990;-92
2023/03/17 06:02:19;;;;;;;3.70;2.45;;;8.00;92.50;;;;;;5068031;28;20792;-92
2023/03/17 06:04:45;;;;;;;4.70;2.72;;;8.00;92.10;;;;;;5068485;28;20406;-91
2023/03/17 06:07:11;;;;;;;3.78;2.40;;;8.00;92.00;;;;;;5067189;28;20494;-90
2023/03/17 06:09:37;;;;;;;4.27;2.20;;;8.10;92.00;;;;;;5068240;28;20500;-90
2023/03/17 06:12:03;;;;;;;4.37;2.30;;;8.10;91.80;;;;;;5068367;28;20406;-90
2023/03/17 06:14:29;;;;;;;3.90;2.33;;;8.10;91.60;;;;;;5067888;28;20405;-91
2023/03/17 06:16:55;;;;;;;3.58;2.05;;;8.20;91.70;;;;;;5068251;28;20414;-90
2023/03/17 06:19:20;;;;;;;4.28;2.10;;;8.20;91.30;;;;;;5068126;28;20829;-93
2023/03/17 06:21:46;;;;;;;4.53;2.40;;;8.20;90.90;;;;;;5067710;28;20398;-92
2023/03/17 06:24:12;;;;;;;3.80;2.30;;;8.40;91.50;;;;;;5067863;28;20412;-90
2023/03/17 06:26:38;;;;;;;4.47;2.10;;;8.30;91.00;;;;;;5067950;28;20406;-90
2023/03/17 06:29:04;;;;;;;4.88;2.33;;;8.30;91.10;;;;;;5067418;28;20398;-90
2023/03/17 06:31:29;;;;;;;3.50;2.57;;;8.30;91.10;;;;;;5084662;28;20491;-90
2023/03/17 06:33:56;;;;;;;3.10;2.20;;;8.30;91.00;;;;;;5067437;28;20433;-90
2023/03/17 06:36:22;;;;;;;3.88;2.33;;;8.30;90.70;;;;;;5084799;28;20481;-91
2023/03/17 06:38:48;;;;;;;3.63;2.20;;;8.60;91.20;;;;;;5084932;28;20562;-91
2023/03/17 06:41:13;;;;;;;4.50;2.20;;;8.40;90.70;;;;;;5067237;28;20885;-90
2023/03/17 06:43:40;;;;;;;3.33;2.03;;;8.40;90.90;;;;;;5084485;28;20397;-90
2023/03/17 06:46:06;;;;;;;3.77;2.20;;;8.40;90.50;;;;;;5084334;28;20793;-91
2023/03/17 06:48:32;;;;;;;5.22;2.20;;;8.50;90.30;;;;;;5085146;28;20398;-92
2023/03/17 06:50:58;;;;;;;3.73;2.33;;;8.50;90.60;;;;;;5084148;28;20402;-91
2023/03/17 06:53:24;;;;;;;5.38;2.17;;;8.50;90.90;;;;;;5084534;28;20785;-89
2023/03/17 06:55:50;;;;;;;3.43;2.10;;;8.50;90.50;;;;;;5084064;28;20413;-90
2023/03/17 06:58:16;;;;;;;3.35;2.13;;;8.50;90.20;;;;;;5067201;28;20828;-91
2023/03/17 07:00:44;;;;;;;3.58;2.20;;;8.50;90.40;;;;;;5084973;28;20406;-90
2023/03/17 07:03:10;;;;;;;2.97;1.73;;;8.60;90.40;;;;;;5067504;28;20398;-92
2023/03/17 07:05:38;;;;;;;3.20;2.25;;;8.70;90.40;;;;;;5087680;28;20391;-90
2023/03/17 07:08:04;;;;;;;3.25;2.40;;;8.70;90.20;;;;;;5070929;28;20498;-90
2023/03/17 07:10:30;;;;;;;3.10;2.00;;;8.80;90.40;;;;;;5071145;28;20406;-89
2023/03/17 07:12:56;;;;;;;4.43;2.22;;;8.90;90.50;;;;;;5071067;28;20413;-90
2023/03/17 07:15:22;;;;;;;4.32;2.40;;;9.00;90.20;;;;;;5070908;28;20483;-90
2023/03/17 07:17:48;;;;;;;3.92;2.50;;;9.00;91.00;;;;;;5087932;28;20420;-90
2023/03/17 07:20:14;;;;;;;4.07;2.10;;;9.00;90.10;;;;;;5070688;28;20979;-89
2023/03/17 07:22:40;;;;;;;5.07;2.50;;;9.10;90.20;;;;;;5070947;28;20406;-89
2023/03/17 07:25:07;;;;;;;3.67;2.17;;;9.10;89.10;;;;;;5087364;28;20908;-90
2023/03/17 07:27:33;;;;;;;3.67;2.42;;;9.10;89.60;;;;;;5087437;28;20402;-90
2023/03/17 07:30:03;;;;;;;3.30;2.17;;;9.20;90.10;;;;;;5087461;28;20537;-89
2023/03/17 07:32:29;;;;;;;3.83;2.30;;;9.20;89.00;;;;;;5070636;28;20429;-90
2023/03/17 07:34:55;;;;;;;4.57;2.20;;;9.30;89.20;;;;;;5070657;28;20406;-90
2023/03/17 07:37:20;;;;;;;4.63;2.58;;;9.60;87.50;;;;;;5070352;28;20410;-91
2023/03/17 07:39:47;;;;;;;3.80;2.73;;;9.50;89.10;;;;;;5087239;28;20485;-90
2023/03/17 07:42:14;;;;;;;3.80;2.60;;;9.60;88.00;;;;;;5087568;28;20481;-89
2023/03/17 07:44:40;;;;;;;3.55;2.38;;;9.70;86.90;;;;;;5087426;28;20904;-90
2023/03/17 07:47:07;;;;;;;3.40;2.70;;;9.70;87.20;;;;;;5070221;28;20394;-90
2023/03/17 07:49:33;;;;;;;3.50;2.13;;;9.70;86.80;;;;;;5070408;28;20414;-90
2023/03/17 07:51:59;;;;;;;3.55;2.40;;;9.70;85.90;;;;;;5070699;28;20414;-90
2023/03/17 07:54:27;;;;;;;4.00;2.50;;;9.80;85.90;;;;;;5070074;28;20426;-92
2023/03/17 07:56:53;;;;;;;3.15;2.00;;;9.80;85.20;;;;;;5070227;28;20406;-91
2023/03/17 07:59:19;;;;;;;4.60;2.30;;;9.80;85.00;;;;;;5086625;28;20414;-90
2023/03/17 08:01:45;;;;;;;3.35;2.13;;;9.90;84.60;;;;;;5087297;28;20402;-88
2023/03/17 08:04:12;;;;;;;3.65;1.60;;;10.00;84.20;;;;;;5086931;28;20401;-90
2023/03/17 08:06:40;;;;;;;5.38;2.80;;;10.00;84.60;;;;;;5087089;28;21063;-90
2023/03/17 08:09:07;;;;;;;3.83;1.88;;;10.30;84.60;;;;;;5086760;28;20402;-90
2023/03/17 08:11:34;;;;;;;3.20;2.05;;;10.10;84.30;;;;;;5070175;28;20449;-90
2023/03/17 08:14:01;;;;;;;3.95;2.20;;;10.20;84.10;;;;;;5086424;28;20418;-90
2023/03/17 08:16:27;;;;;;;4.55;2.38;;;10.20;84.40;;;;;;5086135;28;20402;-90
2023/03/17 08:18:54;;;;;;;4.15;2.22;;;10.30;83.00;;;;;;5069760;28;20452;-90
2023/03/17 08:21:19;;;;;;;3.45;2.17;;;10.30;83.00;;;;;;5069502;28;20459;-90
2023/03/17 08:23:45;;;;;;;3.37;2.13;;;10.60;84.20;;;;;;5070346;28;20406;-90
2023/03/17 08:26:13;;;;;;;4.10;2.33;;;10.40;83.30;;;;;;5086442;28;20399;-90
2023/03/17 08:28:38;;;;;;;3.43;2.47;;;10.50;82.60;;;;;;5069856;28;20394;-90
2023/03/17 08:31:14;;;;;;;5.37;2.53;;;10.80;82.20;;;;;;5070393;28;20413;-89
2023/03/17 08:33:41;;;;;;;5.07;2.28;;;10.60;82.50;;;;;;5086237;28;20429;-90
2023/03/17 08:36:08;;;;;;;4.10;2.10;;;10.80;81.20;;;;;;5069488;28;20405;-90
2023/03/17 08:38:39;;;;;;;3.90;2.07;;;10.70;80.40;;;;;;5086576;28;20421;-90
2023/03/17 08:41:07;;;;;;;3.40;2.05;;;10.70;81.00;;;;;;5069498;28;20823;-91
2023/03/17 08:43:34;;;;;;;4.15;2.10;;;10.70;79.40;;;;;;5086187;28;20403;-90
2023/03/17 08:46:06;;;;;;;3.72;2.03;;;10.80;78.20;;;;;;5086465;28;20443;-91
2023/03/17 08:48:34;;;;;;;2.80;2.10;;;10.80;79.00;;;;;;5086182;28;20492;-90
2023/03/17 08:51:00;;;;;;;3.80;2.20;;;10.80;78.90;;;;;;5085692;28;20846;-91
2023/03/17 08:53:26;;;;;;;3.53;2.20;;;10.90;78.00;;;;;;5069263;28;20852;-92
2023/03/17 08:55:55;;;;;;;3.80;2.20;;;10.90;77.60;;;;;;5085685;28;20459;-91
2023/03/17 08:58:20;;;;;;;4.18;2.10;;;11.30;78.50;;;;;;5086206;28;20436;-91
2023/03/17 09:00:47;;;;;;;3.38;2.28;;;11.50;77.50;;;;;;5086278;28;20446;-90
2023/03/17 09:03:12;;;;;;;4.13;2.15;;;11.50;74.90;;;;;;5069015;28;20912;-90
2023/03/17 09:05:38;;;;;;;3.28;2.30;;;11.70;75.10;;;;;;5085985;28;20406;-90
2023/03/17 09:08:04;;;;;;;4.17;2.43;;;11.90;76.30;;;;;;5068680;28;20410;-91
2023/03/17 09:10:29;;;;;;;3.80;2.30;;;12.20;73.90;;;;;;5085287;28;20489;-90
2023/03/17 09:13:01;;;;;;;4.93;2.40;;;12.40;73.10;;;;;;5068946;28;20512;-91
2023/03/17 09:15:27;;;;;;;4.18;2.67;;;12.60;72.00;;;;;;5069163;28;20434;-90
2023/03/17 09:17:53;;;;;;;4.43;2.53;;;12.70;69.70;;;;;;5068876;28;20434;-91
2023/03/17 09:20:19;;;;;;;6.27;3.07;;;12.70;69.80;;;;;;5068568;28;20398;-90
2023/03/17 09:22:47;;;;;;;5.35;2.90;;;12.80;69.80;;;;;;5069018;28;20402;-90
2023/03/17 09:25:13;;;;;;;4.53;2.83;;;12.90;71.80;;;;;;5068206;28;20406;-91
2023/03/17 09:27:39;;;;;;;5.23;2.57;;;13.00;68.70;;;;;;5068031;28;20395;-91
2023/03/17 09:30:05;;;;;;;5.03;2.90;;;13.30;67.90;;;;;;5085209;28;20755;-90
2023/03/17 09:32:31;;;;;;;5.18;3.15;;;13.20;68.70;;;;;;5101712;28;20520;-90
2023/03/17 09:34:57;;;;;;;4.90;3.07;;;13.20;68.80;;;;;;5068327;28;20386;-91
2023/03/17 09:37:22;;;;;;;5.37;3.40;;;13.50;68.00;;;;;;5068910;28;21162;-90
2023/03/17 09:39:48;;;;;;;3.83;2.85;;;13.40;67.00;;;;;;5068102;28;20493;-89
2023/03/17 09:42:32;;;;;;;5.13;3.03;;;13.40;66.90;;;;;;5068363;28;20927;-91
2023/03/17 09:45:37;;;;;;;6.03;3.70;;;13.50;67.10;;;;;;5085116;28;20421;-92
2023/03/17 09:48:27;;;;;;;6.30;3.42;;;13.80;67.60;;;;;;5067667;28;20449;-92
2023/03/17 09:51:11;;;;;;;5.90;3.55;;;13.80;68.40;;;;;;5068088;28;20542;-91
2023/03/17 09:53:53;;;;;;;5.97;3.80;;;14.00;66.10;;;;;;5084962;28;20436;-91
2023/03/17 09:56:19;;;;;;;7.13;4.03;;;14.10;68.80;;;;;;5068449;28;20552;-91
2023/03/17 09:59:07;;;;;;;6.30;3.95;;;14.20;67.10;;;;;;5068267;28;20489;-91
2023/03/17 10:01:33;;;;;;;7.65;4.20;;;14.40;64.60;;;;;;5068237;28;20409;-91
2023/03/17 10:04:01;;;;;;;8.25;4.20;;;14.50;65.70;;;;;;5084958;28;20493;-91
2023/03/17 10:06:36;;;;;;;6.32;4.13;;;14.80;63.90;;;;;;5067739;28;20408;-92
2023/03/17 10:09:22;;;;;;;6.60;3.90;;;15.50;63.20;;;;;;5084402;28;20424;-91
2023/03/17 10:11:53;;;;;;;6.50;4.40;;;15.80;60.20;;;;;;5085145;28;20418;-93
2023/03/17 10:14:47;;;;;;;7.47;4.18;;;16.20;60.40;;;;;;5067726;28;20479;-91
2023/03/17 10:17:19;;;;;;;4.47;3.67;;;16.60;59.80;;;;;;5084554;28;20458;-90
2023/03/17 10:19:59;;;;;;;6.05;3.95;;;17.20;56.40;;;;;;5102297;28;20493;-91
2023/03/17 10:22:29;;;;;;;6.55;4.10;;;17.40;55.90;;;;;;5067720;28;20406;-92
2023/03/17 10:25:02;;;;;;;6.22;4.07;;;17.80;55.90;;;;;;5068106;28;20846;-90
2023/03/17 10:27:33;;;;;;;6.37;3.70;;;17.80;53.30;;;;;;5068351;28;20447;-92
2023/03/17 10:29:58;;;;;;;6.20;3.78;;;17.90;53.50;;;;;;5068047;28;20394;-91
2023/03/17 10:32:26;;;;;;;5.57;3.60;;;18.10;53.30;;;;;;5068046;28;20401;-92
2023/03/17 10:34:53;;;;;;;5.50;3.80;;;18.10;51.30;;;;;;5068101;28;20746;-93
2023/03/17 10:37:22;;;;;;;5.53;3.80;;;18.20;52.30;;;;;;5084446;28;20931;-92
2023/03/17 10:39:52;;;;;;;5.95;3.25;;;18.40;54.20;;;;;;5071177;28;20404;-91
2023/03/17 10:42:27;;;;;;;5.13;3.17;;;18.60;52.80;;;;;;5072183;28;20402;-92
2023/03/17 10:44:55;;;;;;;5.68;3.38;;;18.30;50.70;;;;;;5072060;28;20808;-91
2023/03/17 10:47:37;;;;;;;5.22;3.40;;;18.30;52.00;;;;;;5071779;28;20793;-91
2023/03/17 10:50:20;;;;;;;3.80;2.85;;;18.40;51.40;;;;;;5088169;28;20501;-90
2023/03/17 10:52:51;;;;;;;4.63;3.30;;;18.40;51.90;;;;;;5088198;28;20425;-92
2023/03/17 10:55:20;;;;;;;5.87;3.30;;;18.50;52.00;;;;;;5072120;28;20398;-92
2023/03/17 10:58:20;;;;;;;4.22;3.50;;;18.70;52.70;;;;;;5088183;28;20439;-91
2023/03/17 11:00:56;;;;;;;4.07;3.00;;;18.80;52.20;;;;;;5088084;28;20961;-92
2023/03/17 11:03:30;;;;;;;4.57;3.42;;;18.80;50.90;;;;;;5071408;28;20436;-91
2023/03/17 11:06:11;;;;;;;5.18;3.50;;;18.90;51.50;;;;;;5088083;28;20901;-93
2023/03/17 11:08:48;;;;;;;4.70;3.63;;;19.00;51.90;;;;;;5087907;28;20505;-93
2023/03/17 11:11:28;;;;;;;4.53;3.20;;;19.10;51.40;;;;;;5071113;28;20406;-91
2023/03/17 11:14:02;;;;;;;4.53;3.20;;;19.40;53.50;;;;;;5087741;28;20962;-92
2023/03/17 11:16:33;;;;;;;4.47;3.80;;;19.50;52.00;;;;;;5087541;28;21451;-92
2023/03/17 11:19:01;;;;;;;4.93;3.78;;;19.60;51.40;;;;;;5071195;28;20734;-92
2023/03/17 11:21:31;;;;;;;5.28;3.83;;;19.90;51.00;;;;;;5087991;28;20420;-91
2023/03/17 11:24:17;;;;;;;4.57;3.70;;;19.80;50.90;;;;;;5071137;28;20406;-93
2023/03/17 11:26:59;;;;;;;5.60;4.35;;;20.00;50.20;;;;;;5071399;28;20426;-92
2023/03/17 11:29:53;;;;;;;4.78;4.00;;;19.80;51.00;;;;;;5071298;28;20768;-92
2023/03/17 11:32:40;;;;;;;5.00;4.00;;;19.80;50.80;;;;;;5071125;28;20422;-93
2023/03/17 11:35:18;;;;;;;4.95;3.92;;;19.90;48.90;;;;;;5087724;28;20413;-92
2023/03/17 11:38:03;;;;;;;5.33;4.10;;;20.20;50.70;;;;;;5070435;28;20956;-91
2023/03/17 11:40:55;;;;;;;5.90;4.00;;;20.00;51.00;;;;;;5069722;28;20462;-90
2023/03/17 11:43:38;;;;;;;5.60;4.25;;;20.10;52.80;;;;;;5087561;28;20437;-92
2023/03/17 11:46:14;;;;;;;5.05;3.85;;;20.30;50.90;;;;;;5087448;28;20877;-92
2023/03/17 11:48:59;;;;;;;4.82;3.92;;;20.30;50.30;;;;;;5070084;28;20406;-92
2023/03/17 11:51:44;;;;;;;5.75;4.28;;;20.50;49.30;;;;;;5069937;28;20417;-92
2023/03/17 11:54:55;;;;;;;5.70;4.45;;;20.70;50.90;;;;;;5070490;28;20940;-91
2023/03/17 11:57:31;;;;;;;4.95;4.10;;;20.80;50.70;;;;;;5046870;28;20415;-92
2023/03/17 12:00:31;;;;;;;5.57;4.63;;;20.90;50.40;;;;;;5087136;28;20401;-92
2023/03/17 12:03:12;;;;;;;5.25;4.30;;;21.10;48.10;;;;;;5087662;28;20410;-91
2023/03/17 12:05:38;;;;;;;5.47;4.60;;;21.20;50.00;;;;;;5069914;28;20414;-92
2023/03/17 12:08:16;;;;;;;7.50;4.80;;;21.20;48.60;;;;;;5069951;28;20559;-93
2023/03/17 12:10:46;;;;;;;7.40;4.85;;;21.20;49.20;;;;;;5086366;28;20441;-92
2023/03/17 12:13:29;;;;;;;5.20;4.70;;;21.50;51.10;;;;;;5069925;28;20430;-92
2023/03/17 12:16:02;;;;;;;6.68;4.65;;;21.30;49.00;;;;;;5086523;28;20433;-92
2023/03/17 12:18:41;;;;;;;6.22;4.43;;;21.10;48.70;;;;;;5069960;28;20454;-93
2023/03/17 12:21:16;;;;;;;5.80;4.65;;;20.90;51.00;;;;;;5070103;28;20406;-92
2023/03/17 12:24:04;;;;;;;6.57;5.10;;;20.40;48.80;;;;;;5069810;28;20509;-92
2023/03/17 12:26:58;;;;;;;5.68;5.00;;;20.10;51.30;;;;;;5069619;28;20998;-92
2023/03/17 12:29:31;;;;;;;7.03;5.35;;;20.20;49.20;;;;;;5070023;28;20772;-93
2023/03/17 12:32:11;;;;;;;5.67;5.07;;;20.00;49.90;;;;;;5069661;28;20401;-94
2023/03/17 12:34:51;;;;;;;5.95;5.00;;;19.90;52.80;;;;;;5069376;28;20785;-91
2023/03/17 12:37:18;;;;;;;5.63;4.80;;;19.90;52.30;;;;;;5069316;28;20436;-91
2023/03/17 12:39:51;;;;;;;5.80;5.03;;;20.00;52.20;;;;;;5086411;28;20410;-92
2023/03/17 12:42:20;;;;;;;6.40;5.10;;;19.80;52.50;;;;;;5069682;28;20399;-92
2023/03/17 12:44:59;;;;;;;7.25;5.03;;;19.80;50.50;;;;;;5086175;28;20409;-92
2023/03/17 12:47:52;;;;;;;6.28;4.72;;;19.80;50.30;;;;;;5086534;28;20440;-92
2023/03/17 12:50:41;;;;;;;5.55;5.00;;;19.80;50.40;;;;;;5069588;28;20407;-93
2023/03/17 12:53:18;;;;;;;7.28;5.68;;;19.70;52.20;;;;;;5068670;28;20479;-91
2023/03/17 12:55:46;;;;;;;8.48;5.53;;;19.40;52.30;;;;;;5069201;28;20738;-92
2023/03/17 12:58:36;;;;;;;7.20;5.43;;;19.00;52.20;;;;;;5069056;28;20436;-92
2023/03/17 13:01:24;;;;;;;6.30;5.30;;;18.50;53.30;;;;;;5068836;28;20422;-93
2023/03/17 13:04:11;;;;;;;7.05;5.20;;;18.20;54.60;;;;;;5069300;28;20417;-91
2023/03/17 13:06:51;;;;;;;6.32;5.45;;;17.80;55.10;;;;;;5069080;28;20485;-92